Air Navigation Services of Czech Republic  
Last data update:  18.07.2019 17:05:26 UTC Česká verze
   METEO Page displayed:  18.07.2019 17:05:40 UTC  
help
METAR EDDB 181650Z 12004KT 070V150 CAVOK 25/08 Q1011 NOSIG=
METAR EDDC 181650Z 12003KT 080V150 CAVOK 25/08 Q1011 NOSIG=
METAR EDDE 181650Z 26011KT CAVOK 25/06 Q1012 NOSIG=
METAR EDDF 181650Z 27013KT 210V320 CAVOK 27/09 Q1011 NOSIG=
METAR EDDM 181650Z 32005KT 280V360 CAVOK 26/09 Q1013 NOSIG=
METAR EDDN 181650Z 27011KT CAVOK 26/08 Q1012 BECMG 28004KT=
METAR EDDP 181650Z 26013KT 230V290 CAVOK 27/07 Q1011 NOSIG=
METAR EDDT 181650Z 31004KT 230V010 CAVOK 27/07 Q1010 NOSIG=
METAR EDQM 181650Z 25008KT 210V280 CAVOK 23/06 Q1013=
METAR EPBY 181700Z 29004KT 250V010 CAVOK 24/06 Q1012=
METAR EPGD 181700Z 05007KT 020V080 CAVOK 17/13 Q1014=
METAR EPKK 181700Z 15004KT CAVOK 24/08 Q1013=
METAR EPKT 181700Z 22004KT 150V260 CAVOK 24/05 Q1013=
METAR EPLL 181700Z VRB01KT CAVOK 25/04 Q1012=
METAR EPPO 181700Z 27002KT CAVOK 26/07 Q1012=
METAR EPRZ 181700Z 32006KT 290V360 CAVOK 23/07 Q1013=
METAR EPWA 181700Z 32004KT 290V010 CAVOK 23/09 Q1013 NOSIG=
METAR EPWR 181700Z 13003KT 080V160 CAVOK 25/07 Q1012=
METAR LHBP 181700Z 19006KT 150V230 CAVOK 24/17 Q1013 NOSIG=
METAR LHSM 181645Z AUTO 00000KT CAVOK 24/19 Q1012=
METAR LKBC 181700Z AUTO 06003KT 360V110 9999 FEW002 SCT073 25/10 Q1012=
METAR LKCV 181700Z 26003KT 210V310 CAVOK 26/10 Q1011 NOSIG RMK BLU BLU=
METAR LKKB 181700Z 14004KT 110V190 CAVOK 25/08 Q1011 NOSIG RMK BLU BLU=
METAR LKKU NIL
METAR LKKV 181700Z 32004KT 270V350 CAVOK 24/07 Q1013 RMK REG QNH 1011=
METAR LKLN 181700Z AUTO VRB05KT 9999 SCT094 27/06 Q1012=
METAR LKMT 181700Z 05006KT CAVOK 24/08 Q1013 NOSIG RMK REG QNH 1011=
METAR LKNA 181700Z 26012KT 9999 -SHRA SCT050TCU 18/15 Q1013 NOSIG RMK BLU BLU=
METAR LKPD 181700Z 11005KT 360V160 CAVOK 26/07 Q1011 NOSIG RMK BLU BLU=
METAR LKPJ 181700Z AUTO VRB02KT 9999 FEW092/// 26/10 Q1012=
METAR LKPR 181700Z 09004KT CAVOK 25/08 Q1012 NOSIG RMK REG QNH 1011=
METAR LKTB 181700Z 10003KT 060V120 CAVOK 25/11 Q1012 NOSIG RMK REG QNH 1011=
METAR LKVO NIL
METAR LOWI 181650Z 06010KT 360V090 9999 SCT080 24/11 Q1013 NOSIG=
METAR LOWL 181650Z AUTO 30009KT 9999 NSC 27/10 Q1012 NOSIG=
METAR LOWS 181650Z 16006KT 9999 FEW070 SCT300 24/13 Q1013 NOSIG=
METAR LOWW 181650Z 31006KT CAVOK 25/10 Q1012 NOSIG=
METAR LZIB 181700Z 21006KT CAVOK 27/13 Q1012 NOSIG=
METAR LZKZ 181700Z VRB02KT CAVOK 22/12 Q1013=
METAR LZMC 181600Z 34002KT CAVOK 26/07 Q1013=
METAR LZPP 181700Z 32003KT CAVOK 27/10 Q1012=
METAR LZSL 181700Z 03003KT 010V070 9999 FEW050 24/11 Q1013=
METAR LZTT 181700Z 25004KT 220V280 9999 SCT050 14/13 Q1015=
METAR LZZI 181700Z 05005KT CAVOK 24/10 Q1013=